createdAt,value
2022-12-19T00:00:42.806Z,11.13
2022-12-19T00:03:12.723Z,10.05
2022-12-19T00:05:42.365Z,8.27
2022-12-19T00:08:18.028Z,12.25
2022-12-19T00:10:59.766Z,11.93
2022-12-19T00:13:27.812Z,8.98
2022-12-19T00:16:06.684Z,10.70
2022-12-19T00:18:34.635Z,9.32
2022-12-19T00:21:05.603Z,12.82
2022-12-19T00:23:34.789Z,8.35
2022-12-19T00:26:11.008Z,8.93
2022-12-19T00:28:38.774Z,11.30
2022-12-19T00:31:07.629Z,8.07
2022-12-19T00:33:35.618Z,9.70
2022-12-19T00:36:10.668Z,9.05
2022-12-19T00:38:39.504Z,8.88
2022-12-19T00:41:16.625Z,8.43
2022-12-19T00:43:47.535Z,11.73
2022-12-19T00:46:16.430Z,9.77
2022-12-19T00:48:44.164Z,10.27
2022-12-19T00:51:16.171Z,11.93
2022-12-19T00:53:45.975Z,8.43
2022-12-19T00:56:26.441Z,9.98
2022-12-19T00:58:55.834Z,9.63
2022-12-19T01:01:31.810Z,10.70
2022-12-19T01:04:27.707Z,11.15
2022-12-19T01:06:50.031Z,8.90
2022-12-19T01:09:18.693Z,7.25
2022-12-19T01:12:04.519Z,11.15
2022-12-19T01:14:31.989Z,6.22
2022-12-19T01:16:59.505Z,7.93
2022-12-19T01:19:27.867Z,8.95
2022-12-19T01:21:55.255Z,6.43
2022-12-19T01:24:23.058Z,7.07
2022-12-19T01:26:50.736Z,7.25
2022-12-19T01:29:18.117Z,9.27
2022-12-19T01:31:45.581Z,6.78
2022-12-19T01:34:13.991Z,5.72
2022-12-19T01:36:41.733Z,7.38
2022-12-19T01:39:09.348Z,8.30
2022-12-19T01:41:38.140Z,6.93
2022-12-19T01:44:08.370Z,11.27
2022-12-19T01:46:55.166Z,7.68
2022-12-19T01:49:31.577Z,6.45
2022-12-19T01:52:05.612Z,7.38
2022-12-19T01:54:39.432Z,6.47
2022-12-19T01:57:12.388Z,6.55
2022-12-19T01:59:41.904Z,5.63
2022-12-19T02:02:19.652Z,5.53
2022-12-19T02:04:48.390Z,7.07
2022-12-19T02:07:19.355Z,6.80
2022-12-19T02:09:56.947Z,6.43
2022-12-19T02:12:42.551Z,5.15
2022-12-19T02:15:12.806Z,4.78
2022-12-19T02:18:20.577Z,5.00
2022-12-19T02:21:26.235Z,6.18
2022-12-19T02:24:12.719Z,4.93
2022-12-19T02:27:30.164Z,7.55
2022-12-19T02:30:13.913Z,6.22
2022-12-19T02:33:01.501Z,4.93
2022-12-19T02:36:12.840Z,4.95
2022-12-19T02:38:56.384Z,6.68
2022-12-19T02:41:44.984Z,4.72
2022-12-19T02:44:32.381Z,5.10
2022-12-19T02:47:04.120Z,4.45
2022-12-19T02:49:38.107Z,4.90
2022-12-19T02:52:34.303Z,3.88
2022-12-19T02:55:08.949Z,5.03
2022-12-19T02:57:45.555Z,6.75
2022-12-19T03:00:22.041Z,5.22
2022-12-19T03:03:13.807Z,10.82
2022-12-19T03:06:02.894Z,4.68
2022-12-19T03:08:42.217Z,6.10
2022-12-19T03:11:15.229Z,5.78
2022-12-19T03:14:09.247Z,4.50
2022-12-19T03:16:38.454Z,6.13
2022-12-19T03:19:12.411Z,4.05
2022-12-19T03:21:45.797Z,4.93
2022-12-19T03:24:14.784Z,4.93
2022-12-19T03:27:02.504Z,4.50
2022-12-19T03:30:11.201Z,4.53
2022-12-19T03:32:42.798Z,3.63
2022-12-19T03:35:27.844Z,4.43
2022-12-19T03:37:59.089Z,5.32
2022-12-19T03:40:27.988Z,4.82
2022-12-19T03:43:12.306Z,5.07
2022-12-19T03:46:02.772Z,4.95
2022-12-19T03:48:45.746Z,5.43
2022-12-19T03:51:32.736Z,4.15
2022-12-19T03:54:19.191Z,5.50
2022-12-19T03:57:02.942Z,4.90
2022-12-19T04:00:08.808Z,4.40
2022-12-19T04:02:48.943Z,4.22
2022-12-19T04:05:22.373Z,3.70
2022-12-19T04:07:53.860Z,4.95
2022-12-19T04:10:25.815Z,4.85
2022-12-19T04:13:12.217Z,5.95
2022-12-19T04:16:18.076Z,3.53
2022-12-19T04:18:53.115Z,4.80
2022-12-19T04:24:03.261Z,5.07
2022-12-19T04:26:33.806Z,4.43
2022-12-19T04:29:04.387Z,3.70
2022-12-19T04:31:32.140Z,6.30
2022-12-19T04:33:59.797Z,4.93
2022-12-19T04:36:27.763Z,4.78
2022-12-19T04:38:55.387Z,4.07
2022-12-19T04:41:22.756Z,3.67
2022-12-19T04:43:53.224Z,3.60
2022-12-19T04:46:20.746Z,4.35
2022-12-19T04:48:48.200Z,4.25
2022-12-19T04:51:16.656Z,5.65
2022-12-19T04:53:44.361Z,3.92
2022-12-19T04:56:12.022Z,4.32
2022-12-19T04:58:39.742Z,3.35
2022-12-19T05:01:09.634Z,4.32
2022-12-19T05:03:40.168Z,4.78
2022-12-19T05:06:12.691Z,7.28
2022-12-19T05:08:42.678Z,4.60
2022-12-19T05:11:19.224Z,3.50
2022-12-19T05:13:48.231Z,4.35
2022-12-19T05:16:16.256Z,3.13
2022-12-19T05:18:44.620Z,3.55
2022-12-19T05:21:13.093Z,4.35
2022-12-19T05:23:40.543Z,8.18
2022-12-19T05:26:08.482Z,4.35
2022-12-19T05:28:35.981Z,3.40
2022-12-19T05:31:13.020Z,3.58
2022-12-19T05:33:42.265Z,3.53
2022-12-19T05:36:14.209Z,3.63
2022-12-19T05:38:42.546Z,4.03
2022-12-19T05:41:15.202Z,5.25
2022-12-19T05:43:45.201Z,3.38
2022-12-19T05:46:12.821Z,4.57
2022-12-19T05:48:40.496Z,3.63
2022-12-19T05:51:08.486Z,3.63
2022-12-19T05:53:38.131Z,3.47
2022-12-19T05:56:13.745Z,3.00
2022-12-19T05:58:42.511Z,3.40
2022-12-19T06:01:17.033Z,3.22
2022-12-19T06:03:45.382Z,3.22
2022-12-19T06:06:16.823Z,3.80
2022-12-19T06:08:44.789Z,3.92
2022-12-19T06:11:13.714Z,7.68
2022-12-19T06:13:41.966Z,3.97
2022-12-19T06:16:16.022Z,4.00
2022-12-19T06:18:45.668Z,4.47
2022-12-19T06:21:22.603Z,4.20
2022-12-19T06:23:50.391Z,4.20
2022-12-19T06:26:20.873Z,5.70
2022-12-19T06:28:50.061Z,5.22
2022-12-19T06:31:19.461Z,4.05
2022-12-19T06:33:46.903Z,4.80
2022-12-19T06:36:25.532Z,7.82
2022-12-19T06:38:55.873Z,4.30
2022-12-19T06:41:42.082Z,3.45
2022-12-19T06:44:12.977Z,4.97
2022-12-19T06:46:41.197Z,10.85
2022-12-19T06:49:11.190Z,6.43
2022-12-19T06:51:38.732Z,4.35
2022-12-19T06:54:06.741Z,8.13
2022-12-19T06:56:38.946Z,4.15
2022-12-19T06:59:07.925Z,6.30
2022-12-19T07:01:35.867Z,6.88
2022-12-19T07:04:04.256Z,4.57
2022-12-19T07:06:31.606Z,6.68
2022-12-19T07:08:59.082Z,5.25
2022-12-19T07:11:26.398Z,4.13
2022-12-19T07:13:59.930Z,10.05
2022-12-19T07:16:28.481Z,6.05
2022-12-19T07:18:56.162Z,5.38
2022-12-19T07:21:25.983Z,6.70
2022-12-19T07:23:53.519Z,5.50
2022-12-19T07:26:21.261Z,4.68
2022-12-19T07:28:48.868Z,3.80
2022-12-19T07:31:16.291Z,4.53
2022-12-19T07:33:43.738Z,6.97
2022-12-19T07:36:11.531Z,7.40
2022-12-19T07:38:39.048Z,3.80
2022-12-19T07:41:06.640Z,6.03
2022-12-19T07:43:34.036Z,5.78
2022-12-19T07:46:01.692Z,5.15
2022-12-19T07:48:31.713Z,8.25
2022-12-19T07:50:59.022Z,5.93
2022-12-19T07:53:28.080Z,7.57
2022-12-19T07:55:55.533Z,8.90
2022-12-19T07:58:23.431Z,4.32
2022-12-19T08:00:59.415Z,10.02
2022-12-19T08:03:28.461Z,10.90
2022-12-19T08:06:05.815Z,5.65
2022-12-19T08:08:34.328Z,9.02
2022-12-19T08:11:22.520Z,4.47
2022-12-19T08:16:17.597Z,5.55
2022-12-19T08:18:45.301Z,9.27
2022-12-19T08:21:12.962Z,5.75
2022-12-19T08:23:40.705Z,5.63
2022-12-19T08:26:13.883Z,5.63
2022-12-19T08:28:41.817Z,11.93
2022-12-19T08:31:16.953Z,7.35
2022-12-19T08:33:45.639Z,9.35
2022-12-19T08:36:16.339Z,6.18
2022-12-19T08:38:44.067Z,5.88
2022-12-19T08:41:11.896Z,5.93
2022-12-19T08:43:39.546Z,9.65
2022-12-19T08:46:09.555Z,7.50
2022-12-19T08:48:37.398Z,7.80
2022-12-19T08:51:10.113Z,6.53
2022-12-19T08:53:40.545Z,5.40
2022-12-19T08:56:22.736Z,5.60
2022-12-19T08:58:52.459Z,13.77
2022-12-19T09:01:24.190Z,9.30
2022-12-19T09:05:02.098Z,12.45
2022-12-19T09:06:39.562Z,6.53
2022-12-19T09:09:07.449Z,8.40
2022-12-19T09:11:36.165Z,28.35
2022-12-19T09:14:21.230Z,19.10
2022-12-19T09:16:49.546Z,26.88
2022-12-19T09:19:17.230Z,31.08
2022-12-19T09:21:45.337Z,18.27
2022-12-19T09:24:12.919Z,18.50
2022-12-19T09:26:44.730Z,21.75
2022-12-19T09:29:20.666Z,20.10
2022-12-19T09:31:55.244Z,17.42
2022-12-19T09:34:32.958Z,17.80
2022-12-19T09:37:08.425Z,31.63
2022-12-19T09:39:36.479Z,22.73
2022-12-19T09:42:40.750Z,13.27
2022-12-19T09:45:31.395Z,14.52
2022-12-19T09:48:02.200Z,15.20
2022-12-19T09:51:12.451Z,13.77
2022-12-19T09:54:26.519Z,11.00
2022-12-19T09:57:01.248Z,19.25
2022-12-19T09:59:50.208Z,8.27
2022-12-19T10:02:33.323Z,13.15
2022-12-19T10:07:07.739Z,12.02
2022-12-19T10:08:32.770Z,11.48
2022-12-19T10:12:36.204Z,4.82
2022-12-19T10:14:23.040Z,13.70
2022-12-19T10:17:53.705Z,13.23
2022-12-19T10:20:31.112Z,12.50
2022-12-19T10:23:13.593Z,10.88
2022-12-19T10:26:13.539Z,12.52
2022-12-19T10:29:05.562Z,7.53
2022-12-19T10:32:02.277Z,7.63
2022-12-19T10:34:42.248Z,7.68
2022-12-19T10:37:40.710Z,10.07
2022-12-19T10:40:27.460Z,5.47
2022-12-19T10:43:30.416Z,10.75
2022-12-19T10:46:11.825Z,13.45
2022-12-19T10:48:39.394Z,6.90
2022-12-19T10:51:13.776Z,10.55
2022-12-19T10:53:41.354Z,7.72
2022-12-19T10:56:33.178Z,8.15
2022-12-19T10:59:04.886Z,7.15
2022-12-19T11:01:41.581Z,3.28
2022-12-19T11:04:34.048Z,11.10
2022-12-19T11:07:04.751Z,11.65
2022-12-19T11:09:42.650Z,6.07
2022-12-19T11:15:49.484Z,9.88
2022-12-19T11:18:48.216Z,10.80
2022-12-19T11:29:16.566Z,7.43
2022-12-19T11:29:41.659Z,8.82
2022-12-19T11:29:42.131Z,5.93
2022-12-19T11:30:47.443Z,9.25
2022-12-19T11:32:43.522Z,8.02
2022-12-19T11:35:35.817Z,7.18
2022-12-19T11:38:08.533Z,9.23
2022-12-19T11:40:52.083Z,7.68
2022-12-19T11:43:46.711Z,14.70
2022-12-19T11:46:33.683Z,9.13
2022-12-19T11:49:13.184Z,7.03
2022-12-19T11:51:45.722Z,12.43
2022-12-19T11:54:31.079Z,16.90
2022-12-19T11:56:59.382Z,11.88
2022-12-19T11:59:37.985Z,5.68
2022-12-19T12:02:42.292Z,6.80
2022-12-19T12:05:26.809Z,8.80
2022-12-19T12:10:07.625Z,17.98
2022-12-19T12:20:40.215Z,4.88
2022-12-19T12:28:09.724Z,7.68
2022-12-19T12:30:59.686Z,12.10
2022-12-19T12:31:05.396Z,6.22
2022-12-19T12:31:44.955Z,14.77
2022-12-19T12:31:53.065Z,5.82
2022-12-19T12:32:00.974Z,9.77
2022-12-19T12:35:32.682Z,10.40
2022-12-19T12:40:42.292Z,13.70
2022-12-19T12:43:52.642Z,9.80
2022-12-19T12:46:35.697Z,9.15
2022-12-19T12:49:35.326Z,12.48
2022-12-19T12:52:07.347Z,11.52
2022-12-19T12:54:39.960Z,10.10
2022-12-19T12:57:19.855Z,12.90
2022-12-19T12:59:48.896Z,16.50
2022-12-19T13:02:24.977Z,13.40
2022-12-19T13:05:00.400Z,12.23
2022-12-19T13:07:54.048Z,10.77
2022-12-19T13:10:29.809Z,18.75
2022-12-19T13:13:14.498Z,29.52
2022-12-19T13:15:46.800Z,25.60
2022-12-19T13:18:35.775Z,28.45
2022-12-19T13:21:07.061Z,21.50
2022-12-19T13:23:48.021Z,29.98
2022-12-19T13:26:48.014Z,25.05
2022-12-19T13:29:54.314Z,41.70
2022-12-19T13:32:23.294Z,39.17
2022-12-19T13:35:10.625Z,27.50
2022-12-19T13:39:59.623Z,27.58
2022-12-19T13:41:02.357Z,29.95
2022-12-19T13:43:48.421Z,40.17
2022-12-19T13:46:44.044Z,21.17
2022-12-19T13:49:35.104Z,17.20
2022-12-19T13:52:04.885Z,35.45
2022-12-19T13:54:46.527Z,25.92
2022-12-19T13:57:40.480Z,19.75
2022-12-19T14:00:21.888Z,25.75
2022-12-19T14:02:54.581Z,26.75
2022-12-19T14:05:34.186Z,21.83
2022-12-19T14:08:23.979Z,22.92
2022-12-19T14:11:38.481Z,21.75
2022-12-19T14:14:23.613Z,24.75
2022-12-19T14:16:56.903Z,18.15
2022-12-19T14:19:29.051Z,17.80
2022-12-19T14:22:25.342Z,27.63
2022-12-19T14:25:50.190Z,23.25
2022-12-19T14:28:24.151Z,13.35
2022-12-19T14:31:01.159Z,14.25
2022-12-19T14:33:44.502Z,16.95
2022-12-19T14:36:27.418Z,16.65
2022-12-19T14:39:24.578Z,11.48
2022-12-19T14:42:06.728Z,14.50
2022-12-19T14:52:25.755Z,11.20
2022-12-19T14:53:51.108Z,12.35
2022-12-19T14:54:13.637Z,13.13
2022-12-19T14:54:24.629Z,13.40
2022-12-19T14:59:02.734Z,11.48
2022-12-19T15:01:34.293Z,17.17
2022-12-19T15:04:53.081Z,11.80
2022-12-19T15:07:08.789Z,13.05
2022-12-19T15:11:07.604Z,14.23
2022-12-19T15:14:52.563Z,12.63
2022-12-19T15:16:32.306Z,9.82
2022-12-19T15:19:04.431Z,12.10
2022-12-19T15:21:36.373Z,9.70
2022-12-19T15:24:04.034Z,5.15
2022-12-19T15:26:37.031Z,8.38
2022-12-19T15:29:18.184Z,6.22
2022-12-19T15:31:51.444Z,10.25
2022-12-19T15:34:41.839Z,14.80
2022-12-19T15:37:17.032Z,4.43
2022-12-19T15:39:47.533Z,20.58
2022-12-19T15:42:24.760Z,8.82
2022-12-19T15:44:55.957Z,14.23
2022-12-19T15:47:35.235Z,10.45
2022-12-19T15:50:25.413Z,14.30
2022-12-19T15:52:57.333Z,14.65
2022-12-19T15:55:28.417Z,12.30
2022-12-19T15:58:03.917Z,15.20
2022-12-19T16:00:35.833Z,12.50
2022-12-19T16:03:23.491Z,17.30
2022-12-19T16:05:53.097Z,13.38
2022-12-19T16:08:25.474Z,19.48
2022-12-19T16:11:01.097Z,13.73
2022-12-19T16:13:34.257Z,15.98
2022-12-19T16:16:10.795Z,10.63
2022-12-19T16:18:42.911Z,13.93
2022-12-19T16:21:33.257Z,14.38
2022-12-19T16:24:04.463Z,14.80
2022-12-19T16:26:38.189Z,10.93
2022-12-19T16:29:06.783Z,10.73
2022-12-19T16:31:34.109Z,9.77
2022-12-19T16:34:02.662Z,13.93
2022-12-19T16:36:30.467Z,11.35
2022-12-19T16:39:00.230Z,8.20
2022-12-19T16:41:28.703Z,8.90
2022-12-19T16:43:56.915Z,9.18
2022-12-19T16:46:30.851Z,9.40
2022-12-19T16:48:58.846Z,12.15
2022-12-19T16:51:28.616Z,15.32
2022-12-19T16:54:00.702Z,9.00
2022-12-19T16:56:39.003Z,9.30
2022-12-19T16:59:16.014Z,13.95
2022-12-19T17:01:45.614Z,10.80
2022-12-19T17:04:23.414Z,9.05
2022-12-19T17:06:53.511Z,10.57
2022-12-19T17:09:23.975Z,8.30
2022-12-19T17:12:02.350Z,10.77
2022-12-19T17:14:32.568Z,533.80
2022-12-19T17:17:00.707Z,487.55
2022-12-19T17:19:37.373Z,477.02
2022-12-19T17:22:12.813Z,488.52
2022-12-19T17:24:40.489Z,490.38
2022-12-19T17:27:09.250Z,495.45
2022-12-19T17:29:39.687Z,489.92
2022-12-19T17:32:10.416Z,493.30
2022-12-19T17:34:37.966Z,498.90
2022-12-19T17:37:06.017Z,496.10
2022-12-19T17:39:37.809Z,493.63
2022-12-19T17:42:19.166Z,497.95
2022-12-19T17:44:46.600Z,493.90
2022-12-19T17:47:17.364Z,498.15
2022-12-19T17:49:44.900Z,491.38
2022-12-19T17:52:18.816Z,494.17
2022-12-19T17:54:46.679Z,486.58
2022-12-19T17:57:17.874Z,489.50
2022-12-19T17:59:47.040Z,495.73
2022-12-19T18:02:26.869Z,494.35
2022-12-19T18:04:54.849Z,491.58
2022-12-19T18:07:24.670Z,491.67
2022-12-19T18:09:52.290Z,500.45
2022-12-19T18:12:22.890Z,491.13
2022-12-19T18:14:51.540Z,491.92
2022-12-19T18:17:25.958Z,493.08
2022-12-19T18:19:56.139Z,495.73
2022-12-19T18:22:23.747Z,492.80
2022-12-19T18:24:52.098Z,503.30
2022-12-19T18:27:19.628Z,503.38
2022-12-19T18:29:46.985Z,500.77
2022-12-19T18:32:19.310Z,500.98
2022-12-19T18:34:46.696Z,503.38
2022-12-19T18:37:16.172Z,500.73
2022-12-19T18:39:43.845Z,501.40
2022-12-19T18:42:21.666Z,505.00
2022-12-19T18:44:49.390Z,486.40
2022-12-19T18:47:22.825Z,500.05
2022-12-19T18:49:52.526Z,499.73
2022-12-19T18:52:20.190Z,503.05
2022-12-19T18:54:47.780Z,503.35
2022-12-19T18:57:15.293Z,502.75
2022-12-19T18:59:42.717Z,502.67
2022-12-19T19:02:27.765Z,499.10
2022-12-19T19:07:23.585Z,499.17
2022-12-19T19:09:51.020Z,492.13
2022-12-19T19:12:43.696Z,497.60
2022-12-19T19:15:11.392Z,491.95
2022-12-19T19:17:38.814Z,493.48
2022-12-19T19:20:07.320Z,496.95
2022-12-19T19:22:35.390Z,496.77
2022-12-19T19:25:02.959Z,499.15
2022-12-19T19:27:30.568Z,502.55
2022-12-19T19:29:59.270Z,497.92
2022-12-19T19:32:27.273Z,502.67
2022-12-19T19:34:56.002Z,495.42
2022-12-19T19:37:23.684Z,498.95
2022-12-19T19:39:51.074Z,501.38
2022-12-19T19:42:19.114Z,503.85
2022-12-19T19:44:46.845Z,500.88
2022-12-19T19:47:14.736Z,506.92
2022-12-19T19:49:42.299Z,511.77
2022-12-19T19:52:09.747Z,514.63
2022-12-19T19:54:38.238Z,505.17
2022-12-19T19:57:08.649Z,508.23
2022-12-19T19:59:38.914Z,512.88
2022-12-19T20:02:08.703Z,506.23
2022-12-19T20:04:36.605Z,500.40
2022-12-19T20:07:04.635Z,501.55
2022-12-19T20:09:32.518Z,507.13
2022-12-19T20:12:00.043Z,509.58
2022-12-19T20:14:28.072Z,505.27
2022-12-19T20:16:55.763Z,506.38
2022-12-19T20:19:23.415Z,506.85
2022-12-19T20:21:51.779Z,507.95
2022-12-19T20:24:19.350Z,495.75
2022-12-19T20:26:46.676Z,512.50
2022-12-19T20:29:15.328Z,509.92
2022-12-19T20:31:45.641Z,509.90
2022-12-19T20:34:13.298Z,510.15
2022-12-19T20:36:40.802Z,509.10
2022-12-19T20:39:08.491Z,509.77
2022-12-19T20:41:37.273Z,508.90
2022-12-19T20:44:05.027Z,506.65
2022-12-19T20:46:33.033Z,509.20
2022-12-19T20:49:00.986Z,512.25
2022-12-19T20:51:28.480Z,512.75
2022-12-19T20:53:56.106Z,506.70
2022-12-19T20:56:24.049Z,12.80
2022-12-19T20:58:54.579Z,17.20
2022-12-19T21:01:25.382Z,9.18
2022-12-19T21:03:53.764Z,13.70
2022-12-19T21:06:25.567Z,23.85
2022-12-19T21:08:56.776Z,17.15
2022-12-19T21:11:26.566Z,18.10
2022-12-19T21:13:54.106Z,16.60
2022-12-19T21:16:25.756Z,14.90
2022-12-19T21:18:56.272Z,21.92
2022-12-19T21:21:28.553Z,20.52
2022-12-19T21:23:56.715Z,16.42
2022-12-19T21:26:26.139Z,16.98
2022-12-19T21:28:54.979Z,27.83
2022-12-19T21:31:26.562Z,27.17
2022-12-19T21:34:03.386Z,20.80
2022-12-19T21:36:32.046Z,19.70
2022-12-19T21:39:02.536Z,19.75
2022-12-19T21:41:31.243Z,16.42
2022-12-19T21:44:03.247Z,16.13
2022-12-19T21:46:33.555Z,14.77
2022-12-19T21:49:03.290Z,10.02
2022-12-19T21:51:32.387Z,21.23
2022-12-19T21:54:03.743Z,10.50
2022-12-19T21:56:40.066Z,15.38
2022-12-19T21:59:13.465Z,12.63
2022-12-19T22:01:42.231Z,510.23
2022-12-19T22:04:17.996Z,20.30
2022-12-19T22:06:45.918Z,16.90
2022-12-19T22:09:18.558Z,21.10
2022-12-19T22:11:47.551Z,20.85
2022-12-19T22:14:23.241Z,15.20
2022-12-19T22:16:55.216Z,12.38
2022-12-19T22:19:23.116Z,15.52
2022-12-19T22:21:50.728Z,13.05
2022-12-19T22:24:20.155Z,14.82
2022-12-19T22:26:47.542Z,12.68
2022-12-19T22:29:17.214Z,10.82
2022-12-19T22:31:45.919Z,13.52
2022-12-19T22:34:17.463Z,12.18
2022-12-19T22:36:46.181Z,11.82
2022-12-19T22:39:19.169Z,10.60
2022-12-19T22:41:47.500Z,10.60
2022-12-19T22:44:24.329Z,8.40
2022-12-19T22:46:52.868Z,10.02
2022-12-19T22:49:20.879Z,9.88
2022-12-19T22:51:48.599Z,10.18
2022-12-19T22:54:16.175Z,6.70
2022-12-19T22:56:48.130Z,7.38
2022-12-19T22:59:17.978Z,11.52
2022-12-19T23:01:45.659Z,7.90
2022-12-19T23:04:15.550Z,5.90
2022-12-19T23:06:44.415Z,8.05
2022-12-19T23:09:17.789Z,9.25
2022-12-19T23:11:49.610Z,10.90
2022-12-19T23:14:24.182Z,7.00
2022-12-19T23:16:59.342Z,7.68
2022-12-19T23:19:30.095Z,9.07
2022-12-19T23:22:00.205Z,15.90
2022-12-19T23:24:27.562Z,13.27
2022-12-19T23:26:57.769Z,11.68
2022-12-19T23:29:25.657Z,12.20
2022-12-19T23:31:55.486Z,9.55
2022-12-19T23:34:22.887Z,10.95
2022-12-19T23:39:37.477Z,9.57
2022-12-19T23:42:05.036Z,10.07
2022-12-19T23:44:32.647Z,10.65
2022-12-19T23:47:03.612Z,11.20
2022-12-19T23:49:33.378Z,7.90
2022-12-19T23:52:01.329Z,8.50
2022-12-19T23:54:28.946Z,9.75
2022-12-19T23:56:56.656Z,9.43
2022-12-19T23:59:24.087Z,11.15
